Time,TemperatureF,DewpointF,PressureIn,WindDirection,WindDirectionDegrees,WindSpeedMPH,WindSpeedGustMPH,Humidity,HourlyPrecipIn,Conditions,Clouds,dailyrainin,SoftwareType,DateUTC
2013-06-06 00:02:00,61.0,-99.9,-100.00,East,92,5.0,6.0,-999,0.00,,,0.06,,2013-06-06 05:02:00,
2013-06-06 00:12:00,61.0,-99.9,-100.00,East,92,5.0,6.0,-999,0.00,,,0.06,,2013-06-06 05:12:00,
2013-06-06 00:23:00,61.0,-99.9,-100.00,East,92,5.0,6.0,-999,0.00,,,0.06,,2013-06-06 05:23:00,
2013-06-06 00:32:00,61.0,-99.9,-100.00,East,83,2.0,4.0,-999,0.07,,,0.13,,2013-06-06 05:32:00,
2013-06-06 00:42:00,61.0,-99.9,-100.00,East,83,2.0,4.0,-999,0.07,,,0.13,,2013-06-06 05:42:00,
2013-06-06 00:52:00,60.0,-99.9,-100.00,SE,142,0.0,0.0,-999,0.23,,,0.29,,2013-06-06 05:52:00,
2013-06-06 01:02:00,60.0,-99.9,-100.00,SE,142,0.0,0.0,-999,0.23,,,0.29,,2013-06-06 06:02:00,
2013-06-06 01:12:00,60.0,-99.9,-100.00,SE,142,0.0,0.0,-999,0.23,,,0.29,,2013-06-06 06:12:00,
2013-06-06 01:22:00,60.0,-99.9,-100.00,SE,142,0.0,0.0,-999,0.23,,,0.29,,2013-06-06 06:22:00,
2013-06-06 01:33:00,60.0,-99.9,-100.00,ENE,68,4.0,6.0,-999,0.38,,,0.51,,2013-06-06 06:33:00,
2013-06-06 01:42:00,60.0,-99.9,-100.00,ENE,68,4.0,6.0,-999,0.38,,,0.51,,2013-06-06 06:42:00,
2013-06-06 01:52:00,59.0,-99.9,-100.00,SE,129,1.0,3.0,-999,0.32,,,0.61,,2013-06-06 06:52:00,
2013-06-06 02:02:00,59.0,-99.9,-100.00,SE,129,1.0,3.0,-999,0.32,,,0.61,,2013-06-06 07:02:00,
2013-06-06 02:12:00,59.0,-99.9,-100.00,SE,129,1.0,3.0,-999,0.32,,,0.61,,2013-06-06 07:12:00,
2013-06-06 02:22:00,59.0,-99.9,-100.00,SE,129,1.0,3.0,-999,0.32,,,0.61,,2013-06-06 07:22:00,
2013-06-06 02:33:00,59.0,-99.9,-100.00,NE,50,4.0,8.0,-999,0.23,,,0.74,,2013-06-06 07:33:00,
2013-06-06 02:42:00,59.0,-99.9,-100.00,NE,50,4.0,8.0,-999,0.23,,,0.74,,2013-06-06 07:42:00,
2013-06-06 02:53:00,59.0,-99.9,-100.00,NE,50,4.0,8.0,-999,0.23,,,0.74,,2013-06-06 07:53:00,
2013-06-06 03:02:00,59.0,-99.9,-100.00,NNE,20,4.0,5.0,-999,0.14,,,0.75,,2013-06-06 08:02:00,
2013-06-06 03:12:00,59.0,-99.9,-100.00,NNE,20,4.0,5.0,-999,0.14,,,0.75,,2013-06-06 08:12:00,
2013-06-06 03:22:00,59.0,-99.9,-100.00,NNE,20,4.0,5.0,-999,0.14,,,0.75,,2013-06-06 08:22:00,
2013-06-06 03:32:00,58.0,-99.9,-100.00,NE,54,6.0,7.0,-999,0.09,,,0.83,,2013-06-06 08:32:00,
2013-06-06 03:42:00,58.0,-99.9,-100.00,NE,54,6.0,7.0,-999,0.09,,,0.83,,2013-06-06 08:42:00,
2013-06-06 03:52:00,58.0,-99.9,-100.00,NE,42,6.0,7.0,-999,0.08,,,0.83,,2013-06-06 08:52:00,
2013-06-06 04:02:00,58.0,-99.9,-100.00,NE,42,6.0,7.0,-999,0.08,,,0.83,,2013-06-06 09:02:00,
2013-06-06 04:12:00,58.0,-99.9,-100.00,NE,42,6.0,7.0,-999,0.08,,,0.83,,2013-06-06 09:12:00,
2013-06-06 04:22:00,58.0,-99.9,-100.00,NE,42,6.0,7.0,-999,0.08,,,0.83,,2013-06-06 09:22:00,
2013-06-06 04:33:00,59.0,-99.9,-100.00,NE,34,2.0,3.0,-999,0.02,,,0.85,,2013-06-06 09:33:00,
2013-06-06 04:43:00,59.0,-99.9,-100.00,NE,34,2.0,3.0,-999,0.02,,,0.85,,2013-06-06 09:43:00,
2013-06-06 04:53:00,58.0,-99.9,-100.00,NE,40,4.0,5.0,-999,0.02,,,0.83,,2013-06-06 09:53:00,
2013-06-06 05:03:00,58.0,-99.9,-100.00,NE,40,4.0,5.0,-999,0.02,,,0.83,,2013-06-06 10:03:00,
2013-06-06 05:12:00,58.0,-99.9,-100.00,NE,40,4.0,5.0,-999,0.02,,,0.83,,2013-06-06 10:12:00,
2013-06-06 05:23:00,58.0,-99.9,-100.00,NE,40,4.0,5.0,-999,0.02,,,0.83,,2013-06-06 10:23:00,
2013-06-06 05:33:00,58.0,-99.9,-100.00,NNE,23,3.0,4.0,-999,0.00,,,0.83,,2013-06-06 10:33:00,
2013-06-06 05:42:00,58.0,-99.9,-100.00,NNE,23,3.0,4.0,-999,0.00,,,0.83,,2013-06-06 10:42:00,
2013-06-06 05:53:00,58.0,-99.9,-100.00,NE,45,4.0,5.0,-999,0.00,,,0.82,,2013-06-06 10:53:00,
2013-06-06 06:03:00,58.0,-99.9,-100.00,NE,45,4.0,5.0,-999,0.00,,,0.82,,2013-06-06 11:03:00,
2013-06-06 06:12:00,58.0,-99.9,-100.00,NE,45,4.0,5.0,-999,0.00,,,0.82,,2013-06-06 11:12:00,
2013-06-06 06:23:00,58.0,-99.9,-100.00,NE,45,4.0,5.0,-999,0.00,,,0.82,,2013-06-06 11:23:00,
2013-06-06 06:32:00,58.0,-99.9,-100.00,NNE,23,3.0,4.0,-999,0.00,,,0.82,,2013-06-06 11:32:00,
2013-06-06 06:42:00,58.0,-99.9,-100.00,NNE,23,3.0,4.0,-999,0.00,,,0.82,,2013-06-06 11:42:00,
2013-06-06 06:52:00,58.0,-99.9,-100.00,NNE,23,3.0,4.0,-999,0.00,,,0.82,,2013-06-06 11:52:00,
2013-06-06 07:00:00,58.0,-99.9,-100.00,NE,43,5.0,6.0,-999,0.00,,,0.82,,2013-06-06 12:00:00,
2013-06-06 07:03:00,58.0,-99.9,-100.00,NNE,31,5.0,6.0,-999,0.00,,,0.82,,2013-06-06 12:03:00,
2013-06-06 07:13:00,58.0,-99.9,-100.00,NNE,31,5.0,6.0,-999,0.00,,,0.82,,2013-06-06 12:13:00,
2013-06-06 07:23:00,58.0,-99.9,-100.00,NNE,31,5.0,6.0,-999,0.00,,,0.82,,2013-06-06 12:23:00,
2013-06-06 07:33:00,58.0,-99.9,-100.00,NE,43,5.0,6.0,-999,0.00,,,0.82,,2013-06-06 12:33:00,
2013-06-06 07:43:00,58.0,-99.9,-100.00,NE,43,5.0,6.0,-999,0.00,,,0.82,,2013-06-06 12:43:00,
2013-06-06 07:53:00,58.0,-99.9,-100.00,NE,43,5.0,6.0,-999,0.00,,,0.82,,2013-06-06 12:53:00,
2013-06-06 08:33:00,59.0,-99.9,-100.00,NW,324,3.0,4.0,-999,0.00,,,0.82,,2013-06-06 13:33:00,
2013-06-06 08:43:00,59.0,-99.9,-100.00,NW,324,3.0,4.0,-999,0.00,,,0.82,,2013-06-06 13:43:00,
2013-06-06 08:53:00,59.0,-99.9,-100.00,NW,324,3.0,4.0,-999,0.00,,,0.82,,2013-06-06 13:53:00,
2013-06-06 09:03:00,59.0,-99.9,-100.00,NW,307,2.0,4.0,-999,0.00,,,0.82,,2013-06-06 14:03:00,
2013-06-06 09:13:00,59.0,-99.9,-100.00,NW,307,2.0,4.0,-999,0.00,,,0.82,,2013-06-06 14:13:00,
2013-06-06 09:23:00,59.0,-99.9,-100.00,NW,307,2.0,4.0,-999,0.00,,,0.82,,2013-06-06 14:23:00,
2013-06-06 09:30:00,61.0,-99.9,-100.00,North,355,3.0,4.0,-999,0.00,,,0.82,,2013-06-06 14:30:00,
2013-06-06 09:33:00,59.0,-99.9,-100.00,North,356,1.0,3.0,-999,0.00,,,0.82,,2013-06-06 14:33:00,
2013-06-06 09:43:00,59.0,-99.9,-100.00,North,356,1.0,3.0,-999,0.00,,,0.82,,2013-06-06 14:43:00,
2013-06-06 09:53:00,59.0,-99.9,-100.00,North,356,1.0,3.0,-999,0.00,,,0.82,,2013-06-06 14:53:00,
2013-06-06 10:03:00,61.0,-99.9,-100.00,North,355,3.0,4.0,-999,0.00,,,0.82,,2013-06-06 15:03:00,
2013-06-06 10:13:00,61.0,-99.9,-100.00,North,355,3.0,4.0,-999,0.00,,,0.82,,2013-06-06 15:13:00,
2013-06-06 10:23:00,61.0,-99.9,-100.00,North,355,3.0,4.0,-999,0.00,,,0.82,,2013-06-06 15:23:00,
2013-06-06 11:03:00,62.0,-99.9,-100.00,NNE,16,4.0,6.0,-999,0.00,,,0.82,,2013-06-06 16:03:00,
2013-06-06 11:13:00,62.0,-99.9,-100.00,NNE,16,4.0,6.0,-999,0.00,,,0.82,,2013-06-06 16:13:00,
2013-06-06 11:23:00,62.0,-99.9,-100.00,NNE,16,4.0,6.0,-999,0.00,,,0.82,,2013-06-06 16:23:00,
2013-06-06 11:34:00,62.0,-99.9,-100.00,North,11,5.0,6.0,-999,0.00,,,0.82,,2013-06-06 16:34:00,
2013-06-06 11:44:00,62.0,-99.9,-100.00,North,11,5.0,6.0,-999,0.00,,,0.82,,2013-06-06 16:44:00,
2013-06-06 11:53:00,63.0,-99.9,-100.00,North,357,5.0,7.0,-999,0.00,,,0.82,,2013-06-06 16:53:00,
2013-06-06 12:03:00,63.0,-99.9,-100.00,North,357,5.0,7.0,-999,0.00,,,0.82,,2013-06-06 17:03:00,
2013-06-06 12:13:00,63.0,-99.9,-100.00,North,357,5.0,7.0,-999,0.00,,,0.82,,2013-06-06 17:13:00,
2013-06-06 12:23:00,63.0,-99.9,-100.00,North,357,5.0,7.0,-999,0.00,,,0.82,,2013-06-06 17:23:00,
2013-06-06 12:33:00,63.0,-99.9,-100.00,NNE,26,5.0,7.0,-999,0.00,,,0.82,,2013-06-06 17:33:00,
2013-06-06 12:43:00,63.0,-99.9,-100.00,NNE,26,5.0,7.0,-999,0.00,,,0.82,,2013-06-06 17:43:00,
2013-06-06 12:53:00,63.0,-99.9,-100.00,NNE,26,5.0,7.0,-999,0.00,,,0.82,,2013-06-06 17:53:00,
2013-06-06 13:03:00,64.0,-99.9,-100.00,North,7,8.0,10.0,-999,0.00,,,0.82,,2013-06-06 18:03:00,
2013-06-06 13:13:00,64.0,-99.9,-100.00,North,7,8.0,10.0,-999,0.00,,,0.82,,2013-06-06 18:13:00,
2013-06-06 13:23:00,64.0,-99.9,-100.00,North,7,8.0,10.0,-999,0.00,,,0.82,,2013-06-06 18:23:00,
2013-06-06 13:33:00,65.0,-99.9,-100.00,NE,34,9.0,11.0,-999,0.00,,,0.82,,2013-06-06 18:33:00,
2013-06-06 13:43:00,65.0,-99.9,-100.00,NE,34,9.0,11.0,-999,0.00,,,0.82,,2013-06-06 18:43:00,
2013-06-06 13:53:00,65.0,-99.9,-100.00,NE,34,9.0,11.0,-999,0.00,,,0.82,,2013-06-06 18:53:00,
2013-06-06 14:00:00,65.0,-99.9,-100.00,NE,47,6.0,9.0,-999,0.00,,,0.82,,2013-06-06 19:00:00,
2013-06-06 14:03:00,66.0,-99.9,-100.00,NNE,17,5.0,8.0,-999,0.00,,,0.82,,2013-06-06 19:03:00,
2013-06-06 14:13:00,66.0,-99.9,-100.00,NNE,17,5.0,8.0,-999,0.00,,,0.82,,2013-06-06 19:13:00,
2013-06-06 14:23:00,66.0,-99.9,-100.00,NNE,17,5.0,8.0,-999,0.00,,,0.82,,2013-06-06 19:23:00,
2013-06-06 14:34:00,65.0,-99.9,-100.00,NE,47,6.0,9.0,-999,0.00,,,0.82,,2013-06-06 19:34:00,
2013-06-06 14:43:00,65.0,-99.9,-100.00,NE,47,6.0,9.0,-999,0.00,,,0.82,,2013-06-06 19:43:00,
2013-06-06 14:53:00,65.0,-99.9,-100.00,NE,47,6.0,9.0,-999,0.00,,,0.82,,2013-06-06 19:53:00,
2013-06-06 15:33:00,67.0,-99.9,-100.00,NNE,30,4.0,5.0,-999,0.00,,,0.82,,2013-06-06 20:33:00,
2013-06-06 15:43:00,67.0,-99.9,-100.00,NNE,30,4.0,5.0,-999,0.00,,,0.82,,2013-06-06 20:43:00,
2013-06-06 15:53:00,66.0,-99.9,-100.00,NNE,31,7.0,8.0,-999,0.00,,,0.82,,2013-06-06 20:53:00,
2013-06-06 16:03:00,66.0,-99.9,-100.00,NNE,31,7.0,8.0,-999,0.00,,,0.82,,2013-06-06 21:03:00,
2013-06-06 16:13:00,66.0,-99.9,-100.00,NNE,31,7.0,8.0,-999,0.00,,,0.82,,2013-06-06 21:13:00,
2013-06-06 16:23:00,66.0,-99.9,-100.00,NNE,31,7.0,8.0,-999,0.00,,,0.82,,2013-06-06 21:23:00,
2013-06-06 16:30:00,67.0,-99.9,-100.00,NNE,21,6.0,8.0,-999,0.00,,,0.81,,2013-06-06 21:30:00,
2013-06-06 16:33:00,66.0,-99.9,-100.00,NE,54,7.0,9.0,-999,0.00,,,0.82,,2013-06-06 21:33:00,
2013-06-06 16:44:00,66.0,-99.9,-100.00,NE,54,7.0,9.0,-999,0.00,,,0.82,,2013-06-06 21:44:00,
2013-06-06 16:53:00,67.0,-99.9,-100.00,NNE,21,6.0,8.0,-999,0.00,,,0.81,,2013-06-06 21:53:00,
2013-06-06 17:03:00,67.0,-99.9,-100.00,NNE,21,6.0,8.0,-999,0.00,,,0.81,,2013-06-06 22:03:00,
2013-06-06 17:13:00,67.0,-99.9,-100.00,NNE,21,6.0,8.0,-999,0.00,,,0.81,,2013-06-06 22:13:00,
2013-06-06 17:23:00,67.0,-99.9,-100.00,NNE,21,6.0,8.0,-999,0.00,,,0.81,,2013-06-06 22:23:00,
2013-06-06 17:53:00,66.0,-99.9,-100.00,NNE,33,7.0,9.0,-999,0.00,,,0.81,,2013-06-06 22:53:00,
2013-06-06 18:03:00,66.0,-99.9,-100.00,NNE,33,7.0,9.0,-999,0.00,,,0.81,,2013-06-06 23:03:00,
2013-06-06 18:13:00,66.0,-99.9,-100.00,NNE,33,7.0,9.0,-999,0.00,,,0.81,,2013-06-06 23:13:00,
2013-06-06 18:22:00,66.0,-99.9,-100.00,NNE,33,7.0,9.0,-999,0.00,,,0.81,,2013-06-06 23:22:00,
2013-06-06 18:33:00,67.0,-99.9,-100.00,NNE,23,6.0,8.0,-999,0.00,,,0.81,,2013-06-06 23:33:00,
2013-06-06 18:43:00,67.0,-99.9,-100.00,NNE,23,6.0,8.0,-999,0.00,,,0.81,,2013-06-06 23:43:00,
2013-06-06 18:52:00,67.0,-99.9,-100.00,NNE,23,6.0,8.0,-999,0.00,,,0.81,,2013-06-06 23:52:00,
2013-06-06 19:02:00,66.0,-99.9,-100.00,NE,45,6.0,8.0,-999,0.00,,,0.81,,2013-06-07 00:02:00,
2013-06-06 19:13:00,66.0,-99.9,-100.00,NE,45,6.0,8.0,-999,0.00,,,0.81,,2013-06-07 00:13:00,
2013-06-06 19:22:00,66.0,-99.9,-100.00,NE,45,6.0,8.0,-999,0.00,,,0.81,,2013-06-07 00:22:00,
2013-06-06 19:32:00,67.0,-99.9,-100.00,NNE,20,5.0,6.0,-999,0.00,,,0.80,,2013-06-07 00:32:00,
2013-06-06 19:43:00,67.0,-99.9,-100.00,NNE,20,5.0,6.0,-999,0.00,,,0.80,,2013-06-07 00:43:00,
2013-06-06 19:52:00,66.0,-99.9,-100.00,North,9,6.0,7.0,-999,0.00,,,0.79,,2013-06-07 00:52:00,
2013-06-06 20:03:00,66.0,-99.9,-100.00,North,9,6.0,7.0,-999,0.00,,,0.79,,2013-06-07 01:03:00,
2013-06-06 20:13:00,66.0,-99.9,-100.00,North,9,6.0,7.0,-999,0.00,,,0.79,,2013-06-07 01:13:00,
2013-06-06 20:22:00,66.0,-99.9,-100.00,North,9,6.0,7.0,-999,0.00,,,0.79,,2013-06-07 01:22:00,
2013-06-06 20:33:00,65.0,-99.9,-100.00,North,7,7.0,10.0,-999,0.00,,,0.79,,2013-06-07 01:33:00,
2013-06-06 20:42:00,65.0,-99.9,-100.00,North,7,7.0,10.0,-999,0.00,,,0.79,,2013-06-07 01:42:00,
2013-06-06 20:53:00,64.0,-99.9,-100.00,North,353,6.0,7.0,-999,0.00,,,0.79,,2013-06-07 01:53:00,
2013-06-06 21:02:00,64.0,-99.9,-100.00,North,353,6.0,7.0,-999,0.00,,,0.79,,2013-06-07 02:02:00,
2013-06-06 21:12:00,64.0,-99.9,-100.00,North,353,6.0,7.0,-999,0.00,,,0.79,,2013-06-07 02:12:00,
2013-06-06 21:22:00,64.0,-99.9,-100.00,North,353,6.0,7.0,-999,0.00,,,0.79,,2013-06-07 02:22:00,
2013-06-06 21:32:00,64.0,-99.9,-100.00,North,5,6.0,9.0,-999,0.00,,,0.79,,2013-06-07 02:32:00,
2013-06-06 21:42:00,64.0,-99.9,-100.00,North,5,6.0,9.0,-999,0.00,,,0.79,,2013-06-07 02:42:00,
2013-06-06 21:52:00,64.0,-99.9,-100.00,North,5,6.0,9.0,-999,0.00,,,0.79,,2013-06-07 02:52:00,
2013-06-06 22:02:00,63.0,-99.9,-100.00,NNE,18,5.0,7.0,-999,0.00,,,0.79,,2013-06-07 03:02:00,
2013-06-06 22:12:00,63.0,-99.9,-100.00,NNE,18,5.0,7.0,-999,0.00,,,0.79,,2013-06-07 03:12:00,
2013-06-06 22:22:00,63.0,-99.9,-100.00,NNE,18,5.0,7.0,-999,0.00,,,0.79,,2013-06-07 03:22:00,
2013-06-06 22:33:00,63.0,-99.9,-100.00,NE,37,7.0,8.0,-999,0.00,,,0.79,,2013-06-07 03:33:00,
2013-06-06 22:44:00,63.0,-99.9,-100.00,NE,37,7.0,8.0,-999,0.00,,,0.79,,2013-06-07 03:44:00,
2013-06-06 22:53:00,63.0,-99.9,-100.00,NNE,27,6.0,8.0,-999,0.00,,,0.79,,2013-06-07 03:53:00,
2013-06-06 23:03:00,63.0,-99.9,-100.00,NNE,27,6.0,8.0,-999,0.00,,,0.79,,2013-06-07 04:03:00,
2013-06-06 23:13:00,63.0,-99.9,-100.00,NNE,27,6.0,8.0,-999,0.00,,,0.79,,2013-06-07 04:13:00,
2013-06-06 23:23:00,63.0,-99.9,-100.00,NNE,27,6.0,8.0,-999,0.00,,,0.79,,2013-06-07 04:23:00,
2013-06-06 23:33:00,62.0,-99.9,-100.00,NNE,12,4.0,6.0,-999,0.00,,,0.79,,2013-06-07 04:33:00,
2013-06-06 23:42:00,62.0,-99.9,-100.00,NNE,12,4.0,6.0,-999,0.00,,,0.79,,2013-06-07 04:42:00,
2013-06-06 23:54:00,62.0,-99.9,-100.00,NNE,17,6.0,8.0,-999,0.00,,,0.79,,2013-06-07 04:54:00,